sensor_id;sensor_type;location;lat;lon;timestamp;pressure;altitude;pressure_sealevel;temperature;humidity
10460;BME280;54412;51.206;6.888;2023-05-24T00:01:35;101621.94;;;13.07;52.61
10460;BME280;54412;51.206;6.888;2023-05-24T00:04:02;101625.41;;;13.08;52.62
10460;BME280;54412;51.206;6.888;2023-05-24T00:06:28;101629.56;;;13.33;51.39
10460;BME280;54412;51.206;6.888;2023-05-24T00:08:54;101632.13;;;13.16;52.24
10460;BME280;54412;51.206;6.888;2023-05-24T00:11:21;101631.72;;;13.05;52.58
10460;BME280;54412;51.206;6.888;2023-05-24T00:13:47;101632.59;;;13.06;52.34
10460;BME280;54412;51.206;6.888;2023-05-24T00:16:13;101635.22;;;12.86;53.32
10460;BME280;54412;51.206;6.888;2023-05-24T00:18:39;101638.66;;;13.08;52.61
10460;BME280;54412;51.206;6.888;2023-05-24T00:21:07;101633.25;;;13.11;52.26
10460;BME280;54412;51.206;6.888;2023-05-24T00:23:33;101633.50;;;13.05;52.55
10460;BME280;54412;51.206;6.888;2023-05-24T00:25:59;101631.56;;;12.88;52.98
10460;BME280;54412;51.206;6.888;2023-05-24T00:28:26;101631.22;;;12.96;52.99
10460;BME280;54412;51.206;6.888;2023-05-24T00:30:52;101627.94;;;12.91;53.14
10460;BME280;54412;51.206;6.888;2023-05-24T00:33:18;101634.31;;;13.07;52.85
10460;BME280;54412;51.206;6.888;2023-05-24T00:35:44;101621.28;;;13.02;52.76
10460;BME280;54412;51.206;6.888;2023-05-24T00:38:09;101627.69;;;12.97;52.84
10460;BME280;54412;51.206;6.888;2023-05-24T00:40:35;101628.88;;;12.90;53.38
10460;BME280;54412;51.206;6.888;2023-05-24T00:43:01;101625.28;;;12.91;53.38
10460;BME280;54412;51.206;6.888;2023-05-24T00:45:26;101626.63;;;12.81;53.55
10460;BME280;54412;51.206;6.888;2023-05-24T00:47:52;101629.28;;;12.81;53.62
10460;BME280;54412;51.206;6.888;2023-05-24T00:50:18;101632.72;;;12.63;54.15
10460;BME280;54412;51.206;6.888;2023-05-24T00:52:48;101626.28;;;12.68;54.40
10460;BME280;54412;51.206;6.888;2023-05-24T00:55:14;101625.50;;;12.66;54.13
10460;BME280;54412;51.206;6.888;2023-05-24T00:57:41;101629.66;;;12.72;54.09
10460;BME280;54412;51.206;6.888;2023-05-24T01:00:07;101625.16;;;12.53;54.61
10460;BME280;54412;51.206;6.888;2023-05-24T01:02:34;101633.16;;;12.72;54.45
10460;BME280;54412;51.206;6.888;2023-05-24T01:05:00;101622.31;;;12.58;54.50
10460;BME280;54412;51.206;6.888;2023-05-24T01:10:20;101623.94;;;12.40;55.12
10460;BME280;54412;51.206;6.888;2023-05-24T01:15:41;101613.44;;;12.39;55.17
10460;BME280;54412;51.206;6.888;2023-05-24T01:18:27;101612.41;;;12.21;56.06
10460;BME280;54412;51.206;6.888;2023-05-24T01:24:38;101615.44;;;12.32;55.95
10460;BME280;54412;51.206;6.888;2023-05-24T01:27:11;101607.66;;;12.29;56.03
10460;BME280;54412;51.206;6.888;2023-05-24T01:29:38;101615.06;;;12.21;56.59
10460;BME280;54412;51.206;6.888;2023-05-24T01:32:05;101613.09;;;12.05;56.59
10460;BME280;54412;51.206;6.888;2023-05-24T01:34:31;101615.44;;;12.12;56.65
10460;BME280;54412;51.206;6.888;2023-05-24T01:36:57;101616.16;;;12.16;56.50
10460;BME280;54412;51.206;6.888;2023-05-24T01:39:26;101604.78;;;12.14;56.53
10460;BME280;54412;51.206;6.888;2023-05-24T01:45:07;101608.34;;;11.91;57.22
10460;BME280;54412;51.206;6.888;2023-05-24T01:50:30;101605.47;;;11.76;57.68
10460;BME280;54412;51.206;6.888;2023-05-24T01:53:05;101600.91;;;11.79;57.62
10460;BME280;54412;51.206;6.888;2023-05-24T01:55:33;101605.69;;;11.91;57.33
10460;BME280;54412;51.206;6.888;2023-05-24T01:58:03;101592.84;;;11.82;57.46
10460;BME280;54412;51.206;6.888;2023-05-24T02:00:32;101585.78;;;11.83;57.47
10460;BME280;54412;51.206;6.888;2023-05-24T02:03:00;101591.28;;;11.78;57.76
10460;BME280;54412;51.206;6.888;2023-05-24T02:05:27;101597.97;;;11.65;57.94
10460;BME280;54412;51.206;6.888;2023-05-24T02:07:53;101603.44;;;11.59;57.99
10460;BME280;54412;51.206;6.888;2023-05-24T02:10:18;101606.34;;;11.53;58.13
10460;BME280;54412;51.206;6.888;2023-05-24T02:12:44;101602.78;;;11.31;58.94
10460;BME280;54412;51.206;6.888;2023-05-24T02:15:10;101600.41;;;11.46;58.53
10460;BME280;54412;51.206;6.888;2023-05-24T02:17:36;101598.75;;;11.44;58.81
10460;BME280;54412;51.206;6.888;2023-05-24T02:20:02;101589.84;;;11.46;58.40
10460;BME280;54412;51.206;6.888;2023-05-24T02:22:28;101584.75;;;11.42;58.40
10460;BME280;54412;51.206;6.888;2023-05-24T02:24:54;101598.19;;;11.36;58.68
10460;BME280;54412;51.206;6.888;2023-05-24T02:27:20;101591.88;;;11.40;58.97
10460;BME280;54412;51.206;6.888;2023-05-24T02:29:45;101591.34;;;11.30;59.00
10460;BME280;54412;51.206;6.888;2023-05-24T02:32:12;101596.81;;;11.26;59.15
10460;BME280;54412;51.206;6.888;2023-05-24T02:34:38;101588.16;;;11.22;59.34
10460;BME280;54412;51.206;6.888;2023-05-24T02:37:04;101590.53;;;11.28;59.05
10460;BME280;54412;51.206;6.888;2023-05-24T02:39:29;101588.25;;;11.19;59.34
10460;BME280;54412;51.206;6.888;2023-05-24T02:41:55;101593.31;;;11.25;59.39
10460;BME280;54412;51.206;6.888;2023-05-24T02:44:21;101592.28;;;11.29;59.50
10460;BME280;54412;51.206;6.888;2023-05-24T02:46:46;101595.59;;;11.34;59.40
10460;BME280;54412;51.206;6.888;2023-05-24T02:49:12;101592.84;;;11.14;59.65
10460;BME280;54412;51.206;6.888;2023-05-24T02:51:38;101588.41;;;11.15;59.82
10460;BME280;54412;51.206;6.888;2023-05-24T02:54:03;101589.09;;;10.97;60.31
10460;BME280;54412;51.206;6.888;2023-05-24T02:56:29;101590.47;;;11.07;59.70
10460;BME280;54412;51.206;6.888;2023-05-24T02:58:55;101599.31;;;11.06;59.73
10460;BME280;54412;51.206;6.888;2023-05-24T03:01:21;101593.69;;;10.92;60.03
10460;BME280;54412;51.206;6.888;2023-05-24T03:03:47;101593.84;;;10.87;60.40
10460;BME280;54412;51.206;6.888;2023-05-24T03:06:13;101601.03;;;11.07;60.12
10460;BME280;54412;51.206;6.888;2023-05-24T03:08:40;101605.91;;;11.17;59.79
10460;BME280;54412;51.206;6.888;2023-05-24T03:11:06;101596.03;;;10.99;60.15
10460;BME280;54412;51.206;6.888;2023-05-24T03:13:31;101602.50;;;10.91;60.30
10460;BME280;54412;51.206;6.888;2023-05-24T03:15:57;101592.53;;;10.99;60.22
10460;BME280;54412;51.206;6.888;2023-05-24T03:18:23;101588.84;;;11.03;60.27
10460;BME280;54412;51.206;6.888;2023-05-24T03:20:49;101585.03;;;11.11;59.95
10460;BME280;54412;51.206;6.888;2023-05-24T03:23:15;101589.66;;;11.05;60.25
10460;BME280;54412;51.206;6.888;2023-05-24T03:25:41;101593.44;;;10.98;60.84
10460;BME280;54412;51.206;6.888;2023-05-24T03:28:06;101587.22;;;11.00;60.24
10460;BME280;54412;51.206;6.888;2023-05-24T03:30:32;101586.94;;;11.08;59.87
10460;BME280;54412;51.206;6.888;2023-05-24T03:32:58;101583.16;;;10.90;60.68
10460;BME280;54412;51.206;6.888;2023-05-24T03:35:24;101587.59;;;10.90;60.68
10460;BME280;54412;51.206;6.888;2023-05-24T03:37:50;101584.69;;;10.97;60.49
10460;BME280;54412;51.206;6.888;2023-05-24T03:40:16;101582.19;;;10.93;60.49
10460;BME280;54412;51.206;6.888;2023-05-24T03:42:41;101589.50;;;10.85;60.44
10460;BME280;54412;51.206;6.888;2023-05-24T03:45:08;101593.69;;;10.67;61.53
10460;BME280;54412;51.206;6.888;2023-05-24T03:47:33;101607.41;;;10.77;60.86
10460;BME280;54412;51.206;6.888;2023-05-24T03:49:59;101606.34;;;10.82;60.79
10460;BME280;54412;51.206;6.888;2023-05-24T03:52:25;101598.44;;;10.82;60.77
10460;BME280;54412;51.206;6.888;2023-05-24T03:54:50;101616.59;;;10.67;61.35
10460;BME280;54412;51.206;6.888;2023-05-24T03:57:16;101603.00;;;10.77;61.57
10460;BME280;54412;51.206;6.888;2023-05-24T03:59:42;101601.69;;;10.89;61.31
10460;BME280;54412;51.206;6.888;2023-05-24T04:02:08;101605.63;;;11.02;61.42
10460;BME280;54412;51.206;6.888;2023-05-24T04:04:34;101606.97;;;11.13;61.26
10460;BME280;54412;51.206;6.888;2023-05-24T04:07:01;101603.41;;;11.14;61.45
10460;BME280;54412;51.206;6.888;2023-05-24T04:09:27;101604.66;;;11.04;61.46
10460;BME280;54412;51.206;6.888;2023-05-24T04:11:53;101608.06;;;11.08;61.53
10460;BME280;54412;51.206;6.888;2023-05-24T04:14:18;101607.13;;;11.09;61.30
10460;BME280;54412;51.206;6.888;2023-05-24T04:16:44;101608.75;;;11.13;61.65
10460;BME280;54412;51.206;6.888;2023-05-24T04:19:10;101611.19;;;11.17;61.28
10460;BME280;54412;51.206;6.888;2023-05-24T04:21:37;101619.88;;;11.21;61.19
10460;BME280;54412;51.206;6.888;2023-05-24T04:24:04;101615.03;;;11.09;61.30
10460;BME280;54412;51.206;6.888;2023-05-24T04:26:30;101623.50;;;10.94;62.39
10460;BME280;54412;51.206;6.888;2023-05-24T04:28:58;101611.22;;;10.93;62.25
10460;BME280;54412;51.206;6.888;2023-05-24T04:31:24;101621.81;;;11.16;61.63
10460;BME280;54412;51.206;6.888;2023-05-24T04:33:50;101616.00;;;11.06;62.08
10460;BME280;54412;51.206;6.888;2023-05-24T04:36:17;101624.41;;;11.17;61.99
10460;BME280;54412;51.206;6.888;2023-05-24T04:38:42;101626.22;;;11.15;62.47
10460;BME280;54412;51.206;6.888;2023-05-24T04:41:10;101620.19;;;11.12;63.18
10460;BME280;54412;51.206;6.888;2023-05-24T04:43:36;101622.69;;;11.16;63.04
10460;BME280;54412;51.206;6.888;2023-05-24T04:46:02;101625.31;;;11.16;63.43
10460;BME280;54412;51.206;6.888;2023-05-24T04:48:28;101629.13;;;11.32;62.94
10460;BME280;54412;51.206;6.888;2023-05-24T04:50:56;101635.91;;;11.39;62.48
10460;BME280;54412;51.206;6.888;2023-05-24T04:53:23;101635.84;;;11.41;62.59
10460;BME280;54412;51.206;6.888;2023-05-24T04:55:50;101636.63;;;11.43;62.55
10460;BME280;54412;51.206;6.888;2023-05-24T04:58:16;101641.47;;;11.32;62.76
10460;BME280;54412;51.206;6.888;2023-05-24T05:00:42;101637.50;;;11.20;63.71
10460;BME280;54412;51.206;6.888;2023-05-24T05:03:09;101639.28;;;11.43;63.46
10460;BME280;54412;51.206;6.888;2023-05-24T05:05:36;101637.22;;;11.51;63.30
10460;BME280;54412;51.206;6.888;2023-05-24T05:08:02;101651.69;;;11.64;62.87
10460;BME280;54412;51.206;6.888;2023-05-24T05:10:28;101657.59;;;11.72;62.84
10460;BME280;54412;51.206;6.888;2023-05-24T05:12:54;101646.59;;;11.83;62.51
10460;BME280;54412;51.206;6.888;2023-05-24T05:15:22;101657.03;;;12.07;62.58
10460;BME280;54412;51.206;6.888;2023-05-24T05:17:48;101667.94;;;12.43;61.33
10460;BME280;54412;51.206;6.888;2023-05-24T05:20:14;101660.00;;;12.43;61.31
10460;BME280;54412;51.206;6.888;2023-05-24T05:22:48;101659.13;;;12.42;61.25
10460;BME280;54412;51.206;6.888;2023-05-24T05:25:14;101660.91;;;12.42;60.87
10460;BME280;54412;51.206;6.888;2023-05-24T05:27:40;101666.28;;;12.40;61.23
10460;BME280;54412;51.206;6.888;2023-05-24T05:30:06;101663.13;;;12.52;60.74
10460;BME280;54412;51.206;6.888;2023-05-24T05:32:33;101664.50;;;12.61;61.72
10460;BME280;54412;51.206;6.888;2023-05-24T05:34:58;101664.84;;;12.53;60.90
10460;BME280;54412;51.206;6.888;2023-05-24T05:37:24;101664.84;;;12.53;60.80
10460;BME280;54412;51.206;6.888;2023-05-24T05:39:50;101658.78;;;12.92;60.38
10460;BME280;54412;51.206;6.888;2023-05-24T05:42:15;101662.56;;;12.86;60.00
10460;BME280;54412;51.206;6.888;2023-05-24T05:44:42;101661.44;;;13.12;59.86
10460;BME280;54412;51.206;6.888;2023-05-24T05:47:07;101663.94;;;12.95;60.19
10460;BME280;54412;51.206;6.888;2023-05-24T05:49:33;101651.06;;;13.07;59.73
10460;BME280;54412;51.206;6.888;2023-05-24T05:52:03;101656.28;;;13.09;60.07
10460;BME280;54412;51.206;6.888;2023-05-24T05:54:29;101657.88;;;12.93;60.98
10460;BME280;54412;51.206;6.888;2023-05-24T05:56:55;101658.53;;;13.18;60.42
10460;BME280;54412;51.206;6.888;2023-05-24T05:59:21;101651.78;;;13.31;60.00
10460;BME280;54412;51.206;6.888;2023-05-24T06:01:47;101652.88;;;13.45;60.19
10460;BME280;54412;51.206;6.888;2023-05-24T06:04:15;101648.63;;;13.41;58.95
10460;BME280;54412;51.206;6.888;2023-05-24T06:06:41;101638.22;;;13.37;59.10
10460;BME280;54412;51.206;6.888;2023-05-24T06:09:07;101645.16;;;13.21;60.42
10460;BME280;54412;51.206;6.888;2023-05-24T06:11:32;101637.69;;;13.10;60.76
10460;BME280;54412;51.206;6.888;2023-05-24T06:13:58;101641.16;;;13.31;60.59
10460;BME280;54412;51.206;6.888;2023-05-24T06:16:24;101635.38;;;13.41;60.03
10460;BME280;54412;51.206;6.888;2023-05-24T06:18:50;101640.91;;;13.17;60.64
10460;BME280;54412;51.206;6.888;2023-05-24T06:21:16;101631.47;;;13.11;60.79
10460;BME280;54412;51.206;6.888;2023-05-24T06:23:42;101641.09;;;13.32;60.83
10460;BME280;54412;51.206;6.888;2023-05-24T06:26:08;101642.41;;;13.22;61.28
10460;BME280;54412;51.206;6.888;2023-05-24T06:28:37;101646.31;;;13.34;61.09
10460;BME280;54412;51.206;6.888;2023-05-24T06:31:04;101646.09;;;13.38;61.03
10460;BME280;54412;51.206;6.888;2023-05-24T06:33:30;101652.91;;;13.44;60.74
10460;BME280;54412;51.206;6.888;2023-05-24T06:35:57;101651.13;;;13.44;60.70
10460;BME280;54412;51.206;6.888;2023-05-24T06:38:22;101649.72;;;13.75;61.32
10460;BME280;54412;51.206;6.888;2023-05-24T06:40:49;101660.66;;;13.86;60.03
10460;BME280;54412;51.206;6.888;2023-05-24T06:43:14;101658.66;;;14.09;60.66
10460;BME280;54412;51.206;6.888;2023-05-24T06:45:40;101649.63;;;14.32;60.06
10460;BME280;54412;51.206;6.888;2023-05-24T06:48:06;101654.94;;;14.49;60.07
10460;BME280;54412;51.206;6.888;2023-05-24T06:50:32;101655.63;;;14.52;59.19
10460;BME280;54412;51.206;6.888;2023-05-24T06:52:58;101656.59;;;14.51;58.65
10460;BME280;54412;51.206;6.888;2023-05-24T06:55:23;101660.63;;;14.41;58.74
10460;BME280;54412;51.206;6.888;2023-05-24T06:57:49;101656.28;;;14.75;57.83
10460;BME280;54412;51.206;6.888;2023-05-24T07:00:15;101666.81;;;14.76;57.69
10460;BME280;54412;51.206;6.888;2023-05-24T07:02:41;101659.63;;;15.12;56.46
10460;BME280;54412;51.206;6.888;2023-05-24T07:05:07;101661.41;;;15.12;56.66
10460;BME280;54412;51.206;6.888;2023-05-24T07:07:41;101657.13;;;14.75;57.59
10460;BME280;54412;51.206;6.888;2023-05-24T07:10:09;101664.38;;;15.06;56.96
10460;BME280;54412;51.206;6.888;2023-05-24T07:12:36;101666.06;;;14.91;56.51
10460;BME280;54412;51.206;6.888;2023-05-24T07:15:03;101658.78;;;14.60;57.31
10460;BME280;54412;51.206;6.888;2023-05-24T07:17:29;101666.53;;;14.82;57.16
10460;BME280;54412;51.206;6.888;2023-05-24T07:19:55;101671.19;;;14.77;57.28
10460;BME280;54412;51.206;6.888;2023-05-24T07:22:21;101674.69;;;15.29;56.30
10460;BME280;54412;51.206;6.888;2023-05-24T07:24:48;101669.94;;;15.51;55.27
10460;BME280;54412;51.206;6.888;2023-05-24T07:27:14;101677.09;;;15.33;53.80
10460;BME280;54412;51.206;6.888;2023-05-24T07:29:40;101677.13;;;14.99;54.74
10460;BME280;54412;51.206;6.888;2023-05-24T07:32:06;101678.13;;;14.97;55.02
10460;BME280;54412;51.206;6.888;2023-05-24T07:34:32;101672.06;;;14.78;55.92
10460;BME280;54412;51.206;6.888;2023-05-24T07:37:00;101669.53;;;14.92;56.14
10460;BME280;54412;51.206;6.888;2023-05-24T07:39:26;101677.16;;;14.82;57.23
10460;BME280;54412;51.206;6.888;2023-05-24T07:41:56;101675.38;;;15.15;55.11
10460;BME280;54412;51.206;6.888;2023-05-24T07:44:22;101678.25;;;15.28;54.45
10460;BME280;54412;51.206;6.888;2023-05-24T07:46:48;101665.22;;;15.40;55.06
10460;BME280;54412;51.206;6.888;2023-05-24T07:49:14;101680.19;;;15.09;55.29
10460;BME280;54412;51.206;6.888;2023-05-24T07:51:40;101667.84;;;15.73;53.73
10460;BME280;54412;51.206;6.888;2023-05-24T07:54:06;101667.25;;;15.84;53.80
10460;BME280;54412;51.206;6.888;2023-05-24T07:56:32;101666.06;;;15.74;54.00
10460;BME280;54412;51.206;6.888;2023-05-24T07:58:58;101663.56;;;16.02;52.37
10460;BME280;54412;51.206;6.888;2023-05-24T08:01:33;101654.47;;;16.37;51.36
10460;BME280;54412;51.206;6.888;2023-05-24T08:04:01;101660.81;;;16.34;50.65
10460;BME280;54412;51.206;6.888;2023-05-24T08:06:29;101663.28;;;16.37;51.01
10460;BME280;54412;51.206;6.888;2023-05-24T08:08:55;101665.34;;;16.48;50.64
10460;BME280;54412;51.206;6.888;2023-05-24T08:11:21;101666.72;;;16.39;50.16
10460;BME280;54412;51.206;6.888;2023-05-24T08:13:47;101665.03;;;16.07;51.46
10460;BME280;54412;51.206;6.888;2023-05-24T08:16:13;101667.44;;;15.81;50.96
10460;BME280;54412;51.206;6.888;2023-05-24T08:18:38;101678.03;;;15.65;50.96
10460;BME280;54412;51.206;6.888;2023-05-24T08:21:04;101677.09;;;15.50;52.05
10460;BME280;54412;51.206;6.888;2023-05-24T08:23:30;101677.78;;;15.37;53.03
10460;BME280;54412;51.206;6.888;2023-05-24T08:25:57;101680.84;;;15.29;53.41
10460;BME280;54412;51.206;6.888;2023-05-24T08:28:23;101682.56;;;15.13;53.75
10460;BME280;54412;51.206;6.888;2023-05-24T08:30:48;101691.97;;;15.03;54.83
10460;BME280;54412;51.206;6.888;2023-05-24T08:33:14;101692.69;;;15.07;54.97
10460;BME280;54412;51.206;6.888;2023-05-24T08:35:40;101687.88;;;15.47;54.02
10460;BME280;54412;51.206;6.888;2023-05-24T08:38:06;101681.47;;;15.67;52.88
10460;BME280;54412;51.206;6.888;2023-05-24T08:40:32;101674.03;;;15.74;52.14
10460;BME280;54412;51.206;6.888;2023-05-24T08:43:00;101679.19;;;16.23;51.60
10460;BME280;54412;51.206;6.888;2023-05-24T08:45:29;101665.00;;;16.54;50.82
10460;BME280;54412;51.206;6.888;2023-05-24T08:47:56;101670.16;;;16.41;49.57
10460;BME280;54412;51.206;6.888;2023-05-24T08:50:27;101661.94;;;16.76;48.72
10460;BME280;54412;51.206;6.888;2023-05-24T08:52:53;101653.56;;;16.67;47.32
10460;BME280;54412;51.206;6.888;2023-05-24T08:55:20;101658.84;;;16.22;48.64
10460;BME280;54412;51.206;6.888;2023-05-24T08:57:47;101655.22;;;16.23;49.98
10460;BME280;54412;51.206;6.888;2023-05-24T09:00:13;101651.06;;;15.88;51.43
10460;BME280;54412;51.206;6.888;2023-05-24T09:02:41;101648.38;;;15.73;51.29
10460;BME280;54412;51.206;6.888;2023-05-24T09:05:10;101656.63;;;15.84;51.20
10460;BME280;54412;51.206;6.888;2023-05-24T09:07:37;101658.31;;;15.69;52.77
10460;BME280;54412;51.206;6.888;2023-05-24T09:10:05;101655.00;;;15.81;52.02
10460;BME280;54412;51.206;6.888;2023-05-24T09:12:32;101654.50;;;15.90;51.78
10460;BME280;54412;51.206;6.888;2023-05-24T09:14:59;101659.19;;;15.69;52.08
10460;BME280;54412;51.206;6.888;2023-05-24T09:17:25;101652.56;;;15.92;51.41
10460;BME280;54412;51.206;6.888;2023-05-24T09:19:51;101647.81;;;16.28;50.78
10460;BME280;54412;51.206;6.888;2023-05-24T09:22:18;101654.44;;;16.52;49.43
10460;BME280;54412;51.206;6.888;2023-05-24T09:24:50;101660.97;;;16.47;49.45
10460;BME280;54412;51.206;6.888;2023-05-24T09:27:20;101652.66;;;16.22;49.86
10460;BME280;54412;51.206;6.888;2023-05-24T09:29:47;101654.25;;;16.55;49.39
10460;BME280;54412;51.206;6.888;2023-05-24T09:32:21;101652.84;;;16.19;49.58
10460;BME280;54412;51.206;6.888;2023-05-24T09:34:52;101665.19;;;15.73;50.39
10460;BME280;54412;51.206;6.888;2023-05-24T09:37:21;101654.31;;;15.78;51.14
10460;BME280;54412;51.206;6.888;2023-05-24T09:39:48;101650.50;;;15.66;50.90
10460;BME280;54412;51.206;6.888;2023-05-24T09:42:19;101653.53;;;15.91;50.67
10460;BME280;54412;51.206;6.888;2023-05-24T09:45:04;101655.09;;;15.95;51.17
10460;BME280;54412;51.206;6.888;2023-05-24T09:47:35;101639.88;;;15.82;51.57
10460;BME280;54412;51.206;6.888;2023-05-24T09:50:03;101628.88;;;16.03;50.77
10460;BME280;54412;51.206;6.888;2023-05-24T09:52:30;101638.44;;;15.92;51.82
10460;BME280;54412;51.206;6.888;2023-05-24T09:54:55;101635.66;;;16.09;51.26
10460;BME280;54412;51.206;6.888;2023-05-24T09:57:21;101638.97;;;16.43;50.30
10460;BME280;54412;51.206;6.888;2023-05-24T09:59:48;101635.22;;;16.47;49.91
10460;BME280;54412;51.206;6.888;2023-05-24T10:02:15;101639.34;;;16.22;51.00
10460;BME280;54412;51.206;6.888;2023-05-24T10:04:43;101629.13;;;16.14;49.47
10460;BME280;54412;51.206;6.888;2023-05-24T10:07:09;101631.38;;;16.22;49.25
10460;BME280;54412;51.206;6.888;2023-05-24T10:09:37;101627.16;;;16.18;49.61
10460;BME280;54412;51.206;6.888;2023-05-24T10:12:05;101634.94;;;16.21;50.07
10460;BME280;54412;51.206;6.888;2023-05-24T10:14:36;101626.06;;;16.67;47.66
10460;BME280;54412;51.206;6.888;2023-05-24T10:17:06;101623.34;;;16.53;48.23
10460;BME280;54412;51.206;6.888;2023-05-24T10:19:36;101632.44;;;16.79;47.82
10460;BME280;54412;51.206;6.888;2023-05-24T10:22:06;101637.59;;;16.82;47.89
10460;BME280;54412;51.206;6.888;2023-05-24T10:24:43;101638.44;;;16.82;47.27
10460;BME280;54412;51.206;6.888;2023-05-24T10:27:15;101630.16;;;16.73;47.76
10460;BME280;54412;51.206;6.888;2023-05-24T10:30:07;101638.56;;;16.51;47.33
10460;BME280;54412;51.206;6.888;2023-05-24T10:32:38;101632.03;;;16.56;48.04
10460;BME280;54412;51.206;6.888;2023-05-24T10:35:06;101633.72;;;16.57;48.75
10460;BME280;54412;51.206;6.888;2023-05-24T10:37:33;101637.16;;;16.59;47.50
10460;BME280;54412;51.206;6.888;2023-05-24T10:39:59;101632.03;;;16.56;47.24
10460;BME280;54412;51.206;6.888;2023-05-24T10:42:25;101636.81;;;16.50;47.81
10460;BME280;54412;51.206;6.888;2023-05-24T10:44:53;101638.84;;;16.60;47.67
10460;BME280;54412;51.206;6.888;2023-05-24T10:47:20;101630.13;;;16.58;48.38
10460;BME280;54412;51.206;6.888;2023-05-24T10:49:56;101631.13;;;16.86;47.30
10460;BME280;54412;51.206;6.888;2023-05-24T10:52:43;101625.53;;;17.04;47.27
10460;BME280;54412;51.206;6.888;2023-05-24T10:55:10;101631.47;;;17.23;46.51
10460;BME280;54412;51.206;6.888;2023-05-24T10:57:38;101630.34;;;17.69;45.01
10460;BME280;54412;51.206;6.888;2023-05-24T11:00:24;101620.28;;;17.87;45.45
10460;BME280;54412;51.206;6.888;2023-05-24T11:03:18;101613.44;;;18.10;44.48
10460;BME280;54412;51.206;6.888;2023-05-24T11:05:53;101620.00;;;17.92;45.39
10460;BME280;54412;51.206;6.888;2023-05-24T11:08:32;101619.47;;;17.58;44.53
10460;BME280;54412;51.206;6.888;2023-05-24T11:11:11;101620.94;;;17.50;45.58
10460;BME280;54412;51.206;6.888;2023-05-24T11:13:38;101621.06;;;17.33;45.40
10460;BME280;54412;51.206;6.888;2023-05-24T11:16:05;101626.97;;;16.66;46.31
10460;BME280;54412;51.206;6.888;2023-05-24T11:18:31;101627.81;;;16.52;47.52
10460;BME280;54412;51.206;6.888;2023-05-24T11:21:04;101625.66;;;16.43;48.20
10460;BME280;54412;51.206;6.888;2023-05-24T11:23:31;101629.41;;;16.55;48.50
10460;BME280;54412;51.206;6.888;2023-05-24T11:25:57;101626.97;;;16.66;47.95
10460;BME280;54412;51.206;6.888;2023-05-24T11:28:23;101628.78;;;16.20;49.23
10460;BME280;54412;51.206;6.888;2023-05-24T11:30:49;101623.72;;;16.31;49.98
10460;BME280;54412;51.206;6.888;2023-05-24T11:33:21;101620.28;;;16.29;50.45
10460;BME280;54412;51.206;6.888;2023-05-24T11:35:53;101620.56;;;16.09;50.05
10460;BME280;54412;51.206;6.888;2023-05-24T11:38:20;101618.06;;;16.22;49.93
10460;BME280;54412;51.206;6.888;2023-05-24T11:40:48;101615.34;;;16.37;49.85
10460;BME280;54412;51.206;6.888;2023-05-24T11:43:19;101618.09;;;16.36;49.48
10460;BME280;54412;51.206;6.888;2023-05-24T11:45:50;101617.34;;;16.34;49.51
10460;BME280;54412;51.206;6.888;2023-05-24T11:48:18;101617.75;;;16.42;49.19
10460;BME280;54412;51.206;6.888;2023-05-24T11:50:46;101618.38;;;16.47;49.21
10460;BME280;54412;51.206;6.888;2023-05-24T11:53:17;101614.63;;;16.65;48.28
10460;BME280;54412;51.206;6.888;2023-05-24T11:55:43;101610.78;;;16.39;48.75
10460;BME280;54412;51.206;6.888;2023-05-24T12:00:46;101618.94;;;16.67;49.02
10460;BME280;54412;51.206;6.888;2023-05-24T12:03:11;101607.84;;;16.89;48.13
10460;BME280;54412;51.206;6.888;2023-05-24T12:05:37;101612.00;;;16.79;48.11
10460;BME280;54412;51.206;6.888;2023-05-24T12:08:09;101607.75;;;17.05;47.13
10460;BME280;54412;51.206;6.888;2023-05-24T12:10:38;101614.50;;;17.24;45.53
10460;BME280;54412;51.206;6.888;2023-05-24T12:13:18;101615.56;;;17.22;45.56
10460;BME280;54412;51.206;6.888;2023-05-24T12:15:44;101616.03;;;17.42;44.90
10460;BME280;54412;51.206;6.888;2023-05-24T12:18:24;101614.22;;;17.71;44.82
10460;BME280;54412;51.206;6.888;2023-05-24T12:20:51;101607.47;;;17.65;45.58
10460;BME280;54412;51.206;6.888;2023-05-24T12:23:24;101618.09;;;17.80;44.97
10460;BME280;54412;51.206;6.888;2023-05-24T12:25:50;101603.13;;;17.91;45.72
10460;BME280;54412;51.206;6.888;2023-05-24T12:28:19;101613.16;;;18.14;45.12
10460;BME280;54412;51.206;6.888;2023-05-24T12:30:48;101609.47;;;18.29;43.88
10460;BME280;54412;51.206;6.888;2023-05-24T12:33:17;101607.31;;;18.48;45.04
10460;BME280;54412;51.206;6.888;2023-05-24T12:35:43;101604.78;;;18.59;42.86
10460;BME280;54412;51.206;6.888;2023-05-24T12:38:09;101614.31;;;18.10;43.53
10460;BME280;54412;51.206;6.888;2023-05-24T12:40:36;101610.38;;;18.42;42.53
10460;BME280;54412;51.206;6.888;2023-05-24T12:43:03;101608.69;;;18.41;43.00
10460;BME280;54412;51.206;6.888;2023-05-24T12:45:29;101609.00;;;18.23;44.10
10460;BME280;54412;51.206;6.888;2023-05-24T12:47:58;101605.44;;;18.36;44.03
10460;BME280;54412;51.206;6.888;2023-05-24T12:50:27;101600.81;;;18.52;44.27
10460;BME280;54412;51.206;6.888;2023-05-24T12:52:53;101596.00;;;18.57;44.72
10460;BME280;54412;51.206;6.888;2023-05-24T12:55:24;101605.63;;;18.47;43.85
10460;BME280;54412;51.206;6.888;2023-05-24T12:57:54;101593.19;;;18.20;43.93
10460;BME280;54412;51.206;6.888;2023-05-24T13:00:28;101601.22;;;18.20;43.43
10460;BME280;54412;51.206;6.888;2023-05-24T13:02:55;101607.59;;;18.17;44.12
10460;BME280;54412;51.206;6.888;2023-05-24T13:05:24;101597.56;;;18.21;44.52
10460;BME280;54412;51.206;6.888;2023-05-24T13:07:51;101595.66;;;17.96;45.00
10460;BME280;54412;51.206;6.888;2023-05-24T13:10:17;101592.34;;;17.93;44.71